Time;durP1;ratioP1;P1;durP2;ratioP2;P2;SDS_P1;SDS_P2;PMS_P1;PMS_P2;Temp;Humidity;BMP_temperature;BMP_pressure;BME280_temperature;BME280_humidity;BME280_pressure;Samples;Min_cycle;Max_cycle;Signal;HPM_P1;HPM_P2
2022/03/31 00:00:19;;;;;;;24.52;16.95;;;4.80;99.90;;;;;;2088126;28;20067;-71
2022/03/31 00:01:20;;;;;;;20.42;15.60;;;4.80;99.90;;;;;;2083500;28;20457;-70
2022/03/31 00:02:21;;;;;;;24.00;16.98;;;4.80;99.90;;;;;;2077591;28;20026;-71
2022/03/31 00:03:22;;;;;;;23.30;16.60;;;4.80;99.90;;;;;;2087308;28;20423;-70
2022/03/31 00:04:22;;;;;;;23.65;16.52;;;4.90;99.90;;;;;;2087971;28;20072;-70
2022/03/31 00:05:23;;;;;;;24.83;16.63;;;4.80;99.90;;;;;;2083643;28;20025;-70
2022/03/31 00:06:24;;;;;;;24.08;16.65;;;4.90;99.90;;;;;;2085962;28;20025;-70
2022/03/31 00:07:24;;;;;;;22.90;16.13;;;4.90;99.90;;;;;;2087821;28;20191;-70
2022/03/31 00:08:25;;;;;;;24.80;16.88;;;4.90;99.90;;;;;;2087824;28;20025;-71
2022/03/31 00:09:26;;;;;;;21.20;15.82;;;4.90;99.90;;;;;;2081905;28;20105;-70
2022/03/31 00:10:35;;;;;;;22.48;16.15;;;4.90;99.90;;;;;;2080665;28;20029;-71
2022/03/31 00:11:35;;;;;;;22.23;16.02;;;4.90;99.90;;;;;;2080375;28;20527;-72
2022/03/31 00:12:36;;;;;;;22.70;16.38;;;4.80;99.90;;;;;;2087730;28;20032;-71
2022/03/31 00:13:36;;;;;;;23.27;16.70;;;4.80;99.90;;;;;;2088221;28;20425;-72
2022/03/31 00:14:38;;;;;;;25.98;17.55;;;4.80;99.90;;;;;;2088057;28;20025;-71
2022/03/31 00:15:39;;;;;;;24.83;17.02;;;4.90;99.90;;;;;;2079182;28;20079;-71
2022/03/31 00:16:40;;;;;;;26.73;17.60;;;4.90;99.90;;;;;;2079680;28;20115;-71
2022/03/31 00:17:40;;;;;;;27.55;18.60;;;4.90;99.90;;;;;;2088313;28;20059;-71
2022/03/31 00:18:41;;;;;;;26.67;17.35;;;5.00;99.90;;;;;;2087978;28;20035;-72
2022/03/31 00:19:41;;;;;;;22.10;16.40;;;4.90;99.90;;;;;;2088557;28;20071;-73
2022/03/31 00:20:43;;;;;;;21.83;15.65;;;4.90;99.90;;;;;;2088334;28;20506;-71
2022/03/31 00:21:43;;;;;;;21.17;16.10;;;4.90;99.90;;;;;;2088401;28;20044;-71
2022/03/31 00:22:44;;;;;;;24.92;17.02;;;4.90;99.90;;;;;;2088070;28;20025;-70
2022/03/31 00:23:45;;;;;;;23.80;16.42;;;4.80;99.90;;;;;;2087211;28;20475;-71
2022/03/31 00:24:45;;;;;;;23.48;16.27;;;4.70;99.90;;;;;;2087374;28;20105;-70
2022/03/31 00:25:46;;;;;;;23.50;16.38;;;4.70;99.90;;;;;;2087300;28;20037;-70
2022/03/31 00:26:47;;;;;;;22.63;15.52;;;4.70;99.90;;;;;;2087372;28;20037;-70
2022/03/31 00:27:47;;;;;;;23.33;16.33;;;4.70;99.90;;;;;;2087486;28;20037;-70
2022/03/31 00:28:48;;;;;;;25.38;16.95;;;4.80;99.90;;;;;;2087288;28;20025;-70
2022/03/31 00:29:48;;;;;;;26.02;17.13;;;4.80;99.90;;;;;;2088944;28;20029;-70
2022/03/31 00:30:49;;;;;;;29.98;18.15;;;4.80;99.90;;;;;;2089109;28;20157;-71
2022/03/31 00:31:50;;;;;;;22.80;15.75;;;4.80;99.90;;;;;;2089499;28;20024;-72
2022/03/31 00:32:52;;;;;;;23.95;16.13;;;4.80;99.90;;;;;;2088955;28;20443;-70
2022/03/31 00:33:52;;;;;;;23.70;16.90;;;4.90;99.90;;;;;;2088896;28;20676;-70
2022/03/31 00:34:53;;;;;;;23.17;16.10;;;4.90;99.90;;;;;;2080738;28;20029;-70
2022/03/31 00:35:53;;;;;;;21.85;15.93;;;4.90;99.90;;;;;;2088953;28;20100;-71
2022/03/31 00:36:54;;;;;;;21.98;15.02;;;4.90;99.90;;;;;;2089554;28;20665;-71
2022/03/31 00:37:55;;;;;;;23.10;15.77;;;4.80;99.90;;;;;;2088847;28;20036;-73
2022/03/31 00:40:18;;;;;;;23.75;16.08;;;4.80;99.90;;;;;;2089374;28;20021;-71
2022/03/31 00:41:18;;;;;;;25.00;16.85;;;4.90;99.90;;;;;;2089473;28;20091;-71
2022/03/31 00:42:19;;;;;;;24.63;16.00;;;4.90;99.90;;;;;;2089619;28;20037;-71
2022/03/31 00:43:20;;;;;;;21.98;15.90;;;4.80;99.90;;;;;;2089504;28;20029;-70
2022/03/31 00:44:20;;;;;;;21.05;15.23;;;4.80;99.90;;;;;;2089263;28;20124;-71
2022/03/31 00:45:27;;;;;;;20.00;15.18;;;4.80;99.90;;;;;;2089259;28;20032;-70
2022/03/31 00:46:27;;;;;;;21.30;15.75;;;4.80;99.90;;;;;;2088512;28;20033;-70
2022/03/31 00:47:28;;;;;;;23.00;15.73;;;4.80;99.90;;;;;;2088780;28;20488;-69
2022/03/31 00:48:29;;;;;;;23.45;16.00;;;4.80;99.90;;;;;;2089259;28;20057;-69
2022/03/31 00:49:30;;;;;;;20.52;15.63;;;4.80;99.90;;;;;;2089300;28;20029;-70
2022/03/31 00:50:33;;;;;;;28.10;18.42;;;4.80;99.90;;;;;;2089247;28;20024;-68
2022/03/31 00:51:34;;;;;;;24.27;16.63;;;4.80;99.90;;;;;;2089442;28;20104;-69
2022/03/31 00:52:35;;;;;;;20.90;15.60;;;4.90;99.90;;;;;;2089592;28;20166;-69
2022/03/31 00:53:36;;;;;;;27.08;17.42;;;4.90;99.90;;;;;;2089303;28;20036;-69
2022/03/31 00:54:38;;;;;;;23.85;16.58;;;4.90;99.90;;;;;;2080636;28;20123;-69
2022/03/31 00:55:41;;;;;;;25.20;16.08;;;4.90;99.90;;;;;;2080926;28;20424;-70
2022/03/31 00:56:42;;;;;;;26.00;16.58;;;4.90;99.90;;;;;;2089121;28;20379;-68
2022/03/31 00:57:44;;;;;;;25.33;17.17;;;4.90;99.90;;;;;;2089505;28;20071;-69
2022/03/31 00:58:45;;;;;;;24.40;16.65;;;4.90;99.90;;;;;;2089280;28;20051;-69
2022/03/31 00:59:45;;;;;;;26.25;17.30;;;4.90;99.90;;;;;;2089107;28;20415;-69
2022/03/31 01:00:47;;;;;;;25.50;16.98;;;4.90;99.90;;;;;;2088493;28;20091;-68
2022/03/31 01:01:49;;;;;;;24.90;16.13;;;4.90;99.90;;;;;;2088662;28;20040;-68
2022/03/31 01:02:49;;;;;;;24.63;16.65;;;4.90;99.90;;;;;;2088623;28;20441;-70
2022/03/31 01:03:50;;;;;;;26.17;16.80;;;4.90;99.90;;;;;;2088642;28;20029;-68
2022/03/31 01:04:51;;;;;;;24.25;16.23;;;4.90;99.90;;;;;;2088452;28;20053;-69
2022/03/31 01:05:52;;;;;;;24.42;16.45;;;4.80;99.90;;;;;;2088484;28;20137;-69
2022/03/31 01:06:53;;;;;;;23.52;16.42;;;4.90;99.90;;;;;;2088570;28;20036;-69
2022/03/31 01:07:55;;;;;;;24.52;16.92;;;4.90;99.90;;;;;;2089188;28;20044;-68
2022/03/31 01:08:56;;;;;;;23.25;16.92;;;4.80;99.90;;;;;;2088540;28;20023;-68
2022/03/31 01:09:57;;;;;;;22.08;15.88;;;4.80;99.90;;;;;;2088403;28;20559;-69
2022/03/31 01:10:58;;;;;;;27.77;17.13;;;4.80;99.90;;;;;;2089391;28;20033;-68
2022/03/31 01:12:01;;;;;;;24.42;16.42;;;4.80;99.90;;;;;;2088679;28;20393;-68
2022/03/31 01:13:07;;;;;;;23.10;16.70;;;4.80;99.90;;;;;;2088572;28;20033;-68
2022/03/31 01:14:09;;;;;;;23.27;16.75;;;4.80;99.90;;;;;;2088752;28;20049;-68
2022/03/31 01:15:18;;;;;;;22.98;16.00;;;4.80;99.90;;;;;;2089046;28;20032;-69
2022/03/31 01:16:19;;;;;;;24.23;16.80;;;4.80;99.90;;;;;;2089235;28;20475;-69
2022/03/31 01:17:19;;;;;;;25.40;17.23;;;4.70;99.90;;;;;;2089221;28;20024;-69
2022/03/31 01:18:20;;;;;;;26.27;17.50;;;4.70;99.90;;;;;;2088269;28;20037;-69
2022/03/31 01:19:21;;;;;;;24.10;16.77;;;4.70;99.90;;;;;;2088305;28;20110;-69
2022/03/31 01:20:22;;;;;;;26.02;17.27;;;4.80;99.90;;;;;;2089117;28;20032;-68
2022/03/31 01:21:22;;;;;;;21.77;16.35;;;4.80;99.90;;;;;;2089218;28;20037;-68
2022/03/31 01:22:27;;;;;;;26.85;18.02;;;4.70;99.90;;;;;;2088442;28;20025;-69
2022/03/31 01:23:28;;;;;;;26.58;17.45;;;4.70;99.90;;;;;;2088671;28;20021;-69
2022/03/31 01:24:29;;;;;;;26.92;17.85;;;4.70;99.90;;;;;;2088496;28;20470;-69
2022/03/31 01:25:29;;;;;;;26.15;18.17;;;4.70;99.90;;;;;;2088410;28;20112;-68
2022/03/31 01:26:30;;;;;;;25.95;17.58;;;4.70;99.90;;;;;;2088618;28;20496;-70
2022/03/31 01:27:32;;;;;;;23.00;17.13;;;4.70;99.90;;;;;;2080023;28;20052;-68
2022/03/31 01:28:36;;;;;;;25.33;18.10;;;4.80;99.90;;;;;;2088422;28;20025;-70
2022/03/31 01:29:37;;;;;;;24.88;17.98;;;4.80;99.90;;;;;;2088937;28;20028;-70
2022/03/31 01:30:38;;;;;;;25.35;17.85;;;4.80;99.90;;;;;;2088798;28;20029;-69
2022/03/31 01:31:38;;;;;;;26.80;17.83;;;4.70;99.90;;;;;;2088815;28;20095;-69
2022/03/31 01:32:40;;;;;;;26.35;17.85;;;4.70;99.90;;;;;;2088879;28;20125;-69
2022/03/31 01:33:41;;;;;;;26.05;17.48;;;4.70;99.90;;;;;;2088963;28;20028;-70
2022/03/31 01:34:41;;;;;;;26.45;18.05;;;4.70;99.90;;;;;;2088898;28;20029;-70
2022/03/31 01:35:42;;;;;;;26.35;18.83;;;4.60;99.90;;;;;;2088878;28;20116;-69
2022/03/31 01:36:43;;;;;;;25.80;18.50;;;4.60;99.90;;;;;;2088907;28;20036;-69
2022/03/31 01:37:43;;;;;;;27.05;18.65;;;4.70;99.90;;;;;;2088958;28;20028;-69
2022/03/31 01:38:44;;;;;;;25.70;18.25;;;4.60;99.90;;;;;;2088819;28;20044;-69
2022/03/31 01:39:45;;;;;;;23.50;17.40;;;4.50;99.90;;;;;;2088566;28;20366;-69
2022/03/31 01:40:46;;;;;;;24.63;17.25;;;4.50;99.90;;;;;;2088884;28;20029;-70
2022/03/31 01:41:46;;;;;;;27.08;18.50;;;4.50;99.90;;;;;;2088991;28;20044;-70
2022/03/31 01:42:47;;;;;;;25.27;18.52;;;4.50;99.90;;;;;;2088443;28;20523;-69
2022/03/31 01:43:48;;;;;;;27.27;19.05;;;4.50;99.90;;;;;;2088487;28;20111;-70
2022/03/31 01:44:52;;;;;;;25.83;18.38;;;4.60;99.90;;;;;;2088658;28;20033;-70
2022/03/31 01:45:54;;;;;;;26.75;18.83;;;4.60;99.90;;;;;;2088578;28;20041;-70
2022/03/31 01:46:55;;;;;;;23.50;17.60;;;4.60;99.90;;;;;;2089087;28;20098;-69
2022/03/31 01:47:56;;;;;;;26.05;17.98;;;4.60;99.90;;;;;;2089203;28;20033;-70
2022/03/31 01:48:56;;;;;;;24.05;17.67;;;4.60;99.90;;;;;;2089171;28;20017;-69
2022/03/31 01:49:57;;;;;;;23.55;18.02;;;4.60;99.90;;;;;;2089146;28;20472;-69
2022/03/31 01:50:58;;;;;;;27.60;18.80;;;4.60;99.90;;;;;;2089050;28;20396;-69
2022/03/31 01:51:58;;;;;;;25.90;18.20;;;4.60;99.90;;;;;;2089230;28;20021;-70
2022/03/31 01:52:59;;;;;;;26.90;18.80;;;4.50;99.90;;;;;;2089128;28;20021;-70
2022/03/31 01:53:59;;;;;;;26.63;18.40;;;4.50;99.90;;;;;;2088153;28;20508;-70
2022/03/31 01:55:00;;;;;;;26.63;18.90;;;4.60;99.90;;;;;;2088455;28;20488;-70
2022/03/31 01:56:01;;;;;;;25.38;18.52;;;4.60;99.90;;;;;;2088550;28;20024;-70
2022/03/31 01:57:02;;;;;;;26.67;19.08;;;4.60;99.90;;;;;;2088419;28;20021;-69
2022/03/31 01:58:03;;;;;;;26.33;19.17;;;4.60;99.90;;;;;;2088578;28;20075;-70
2022/03/31 01:59:04;;;;;;;25.17;18.42;;;4.60;99.90;;;;;;2088745;28;20032;-70
2022/03/31 02:00:06;;;;;;;27.00;18.23;;;4.60;99.90;;;;;;2088724;28;20114;-68
2022/03/31 02:01:15;;;;;;;27.25;18.92;;;4.60;99.90;;;;;;2088904;28;20052;-69
2022/03/31 02:02:16;;;;;;;27.20;19.40;;;4.60;99.90;;;;;;2088190;28;20056;-69
2022/03/31 02:03:18;;;;;;;27.42;19.35;;;4.60;99.90;;;;;;2088036;28;20025;-69
2022/03/31 02:04:19;;;;;;;27.15;18.48;;;4.60;99.90;;;;;;2079816;28;20041;-69
2022/03/31 02:05:20;;;;;;;27.38;19.05;;;4.60;99.90;;;;;;2079748;28;20152;-69
2022/03/31 02:06:21;;;;;;;31.05;20.08;;;4.60;99.90;;;;;;2088014;28;20811;-69
2022/03/31 02:07:21;;;;;;;29.90;20.75;;;4.60;99.90;;;;;;2079631;28;20037;-69
2022/03/31 02:08:22;;;;;;;31.73;20.45;;;4.60;99.90;;;;;;2087617;28;20125;-69
2022/03/31 02:09:23;;;;;;;30.10;19.98;;;4.70;99.90;;;;;;2088637;28;20039;-69
2022/03/31 02:10:27;;;;;;;30.75;20.73;;;4.70;99.90;;;;;;2088606;28;20040;-68
2022/03/31 02:11:28;;;;;;;27.83;20.50;;;4.60;99.90;;;;;;2089042;28;20141;-69
2022/03/31 02:12:29;;;;;;;31.17;21.20;;;4.60;99.90;;;;;;2088883;28;20626;-69
2022/03/31 02:13:30;;;;;;;29.52;20.25;;;4.60;99.90;;;;;;2089211;28;20061;-69
2022/03/31 02:14:32;;;;;;;30.50;20.48;;;4.60;99.90;;;;;;2088987;28;20033;-68
2022/03/31 02:15:34;;;;;;;32.22;21.48;;;4.60;99.90;;;;;;2088930;28;20131;-68
2022/03/31 02:16:35;;;;;;;28.40;20.48;;;4.60;99.90;;;;;;2089245;28;20480;-69
2022/03/31 02:17:35;;;;;;;33.08;22.20;;;4.60;99.90;;;;;;2089381;28;20135;-70
2022/03/31 02:18:36;;;;;;;37.58;22.77;;;4.60;99.90;;;;;;2089027;28;20093;-68
2022/03/31 02:19:36;;;;;;;33.75;22.52;;;4.60;99.90;;;;;;2088967;28;20458;-71
2022/03/31 02:20:38;;;;;;;33.80;21.63;;;4.60;99.90;;;;;;2080636;28;20032;-69
2022/03/31 02:21:40;;;;;;;34.47;22.77;;;4.60;99.90;;;;;;2089033;28;20041;-70
2022/03/31 02:22:41;;;;;;;34.20;22.85;;;4.60;99.90;;;;;;2088994;28;20920;-71
2022/03/31 02:23:42;;;;;;;32.50;22.20;;;4.50;99.90;;;;;;2089324;28;20099;-71
2022/03/31 02:24:43;;;;;;;32.90;23.02;;;4.50;99.90;;;;;;2088503;28;20103;-70
2022/03/31 02:25:44;;;;;;;32.28;22.10;;;4.50;99.90;;;;;;2089084;28;20535;-69
2022/03/31 02:26:44;;;;;;;37.00;23.15;;;4.50;99.90;;;;;;2089665;28;20540;-71
2022/03/31 02:27:50;;;;;;;32.20;22.98;;;4.50;99.90;;;;;;2089671;28;20045;-71
2022/03/31 02:28:51;;;;;;;32.30;22.52;;;4.50;99.90;;;;;;2089843;28;20743;-69
2022/03/31 02:29:52;;;;;;;33.08;22.23;;;4.50;99.90;;;;;;2088965;28;20052;-72
2022/03/31 02:30:52;;;;;;;33.00;23.27;;;4.50;99.90;;;;;;2088490;28;20493;-70
2022/03/31 02:31:53;;;;;;;32.33;23.45;;;4.50;99.90;;;;;;2089092;28;20101;-71
2022/03/31 02:32:54;;;;;;;34.17;22.15;;;4.60;99.90;;;;;;2090874;28;20040;-70
2022/03/31 02:33:55;;;;;;;32.65;22.30;;;4.60;99.90;;;;;;2081072;28;20022;-70
2022/03/31 02:34:57;;;;;;;32.45;23.25;;;4.60;99.90;;;;;;2080174;28;20037;-68
2022/03/31 02:35:57;;;;;;;33.35;23.48;;;4.50;99.90;;;;;;2088587;28;20095;-69
2022/03/31 02:36:58;;;;;;;39.10;25.30;;;4.50;99.90;;;;;;2088092;28;20559;-71
2022/03/31 02:37:59;;;;;;;35.75;24.65;;;4.50;99.90;;;;;;2087922;28;20496;-69
2022/03/31 02:38:59;;;;;;;37.45;24.80;;;4.40;99.90;;;;;;2088151;28;20095;-69
2022/03/31 02:40:00;;;;;;;41.22;25.60;;;4.40;99.90;;;;;;2088491;28;20642;-70
2022/03/31 02:41:03;;;;;;;38.45;25.33;;;4.40;99.90;;;;;;2088050;28;20037;-69
2022/03/31 02:42:04;;;;;;;36.75;24.80;;;4.40;99.90;;;;;;2079902;28;20049;-69
2022/03/31 02:43:04;;;;;;;35.58;25.10;;;4.40;99.90;;;;;;2087795;28;20104;-70
2022/03/31 02:44:06;;;;;;;37.92;26.00;;;4.40;99.90;;;;;;2087907;28;20491;-69
2022/03/31 02:45:07;;;;;;;40.08;26.58;;;4.40;99.90;;;;;;2087784;28;20033;-70
2022/03/31 02:46:08;;;;;;;40.75;26.35;;;4.30;99.90;;;;;;2088573;28;20094;-69
2022/03/31 02:47:09;;;;;;;37.70;26.02;;;4.30;99.90;;;;;;2088450;28;20605;-69
2022/03/31 02:48:09;;;;;;;37.28;25.60;;;4.30;99.90;;;;;;2087513;28;20040;-69
2022/03/31 02:49:10;;;;;;;37.13;25.33;;;4.30;99.90;;;;;;2087981;28;20075;-69
2022/03/31 02:50:12;;;;;;;41.40;25.25;;;4.30;99.90;;;;;;2087829;28;20025;-70
2022/03/31 02:51:12;;;;;;;35.83;25.25;;;4.40;99.90;;;;;;2087761;28;20723;-69
2022/03/31 02:52:13;;;;;;;40.47;25.48;;;4.40;99.90;;;;;;2087993;28;20052;-69
2022/03/31 02:55:53;;;;;;;36.92;24.70;;;4.40;99.90;;;;;;2088388;28;20280;-69
2022/03/31 02:56:53;;;;;;;37.25;25.65;;;4.40;99.90;;;;;;2088359;28;20029;-68
2022/03/31 02:58:02;;;;;;;36.33;25.15;;;4.40;99.90;;;;;;2088288;28;20021;-70
2022/03/31 02:59:04;;;;;;;38.55;25.48;;;4.40;99.90;;;;;;2088112;28;20031;-70
2022/03/31 03:00:05;;;;;;;36.80;25.25;;;4.40;99.90;;;;;;2088049;28;20032;-69
2022/03/31 03:01:05;;;;;;;40.72;25.85;;;4.40;99.90;;;;;;2088307;28;20104;-68
2022/03/31 03:02:06;;;;;;;39.50;27.42;;;4.40;99.90;;;;;;2088202;28;20565;-69
2022/03/31 03:03:08;;;;;;;43.15;27.08;;;4.30;99.90;;;;;;2088246;28;20033;-69
2022/03/31 03:04:09;;;;;;;41.78;28.15;;;4.30;99.90;;;;;;2088206;28;20796;-69
2022/03/31 03:05:10;;;;;;;40.83;27.58;;;4.30;99.90;;;;;;2087414;28;20435;-70
2022/03/31 03:06:11;;;;;;;41.15;27.33;;;4.30;99.90;;;;;;2079264;28;20026;-69
2022/03/31 03:07:11;;;;;;;41.75;27.35;;;4.40;99.90;;;;;;2079420;28;20099;-69
2022/03/31 03:08:14;;;;;;;41.88;28.65;;;4.30;99.90;;;;;;2087165;28;20532;-68
2022/03/31 03:09:15;;;;;;;43.67;27.75;;;4.30;99.90;;;;;;2088213;28;20079;-69
2022/03/31 03:10:16;;;;;;;42.38;28.65;;;4.30;99.90;;;;;;2088399;28;20033;-70
2022/03/31 03:11:17;;;;;;;44.40;29.13;;;4.30;99.90;;;;;;2088664;28;20040;-70
2022/03/31 03:12:18;;;;;;;41.67;28.88;;;4.20;99.90;;;;;;2088295;28;20470;-69
2022/03/31 03:13:19;;;;;;;45.33;28.77;;;4.20;99.90;;;;;;2087360;28;20099;-69
2022/03/31 03:14:21;;;;;;;42.58;28.95;;;4.20;99.90;;;;;;2087497;28;20435;-71
2022/03/31 03:15:22;;;;;;;44.13;29.48;;;4.20;99.90;;;;;;2088025;28;20477;-70
2022/03/31 03:16:25;;;;;;;45.95;29.40;;;4.20;99.90;;;;;;2088082;28;20056;-71
2022/03/31 03:17:25;;;;;;;46.63;29.10;;;4.10;99.90;;;;;;2087885;28;20032;-69
2022/03/31 03:18:26;;;;;;;44.28;29.65;;;4.10;99.90;;;;;;2087719;28;20053;-68
2022/03/31 03:19:26;;;;;;;46.13;29.60;;;4.10;99.90;;;;;;2088098;28;20596;-70
2022/03/31 03:20:28;;;;;;;46.42;29.92;;;4.10;99.90;;;;;;2087391;28;20121;-69
2022/03/31 03:21:29;;;;;;;45.47;29.08;;;4.20;99.90;;;;;;2087485;28;20029;-68
2022/03/31 03:22:31;;;;;;;47.20;29.88;;;4.20;99.90;;;;;;2079330;28;20429;-70
2022/03/31 03:23:32;;;;;;;46.30;29.65;;;4.10;99.90;;;;;;2079614;28;20040;-70
2022/03/31 03:24:33;;;;;;;46.95;29.85;;;4.10;99.90;;;;;;2087737;28;20063;-70
2022/03/31 03:25:33;;;;;;;47.33;30.27;;;4.00;99.90;;;;;;2088298;28;20036;-70
2022/03/31 03:26:34;;;;;;;47.13;30.38;;;4.10;99.90;;;;;;2087610;28;20392;-71
2022/03/31 03:27:35;;;;;;;49.50;30.77;;;4.00;99.90;;;;;;2087477;28;20039;-70
2022/03/31 03:28:36;;;;;;;45.65;30.08;;;4.00;99.90;;;;;;2087785;28;20032;-70
2022/03/31 03:29:36;;;;;;;47.90;31.00;;;4.00;99.90;;;;;;2079099;28;20495;-70
2022/03/31 03:30:37;;;;;;;42.85;29.60;;;4.00;99.90;;;;;;2079391;28;20045;-70
2022/03/31 03:31:38;;;;;;;47.30;30.83;;;4.00;99.90;;;;;;2088177;28;20085;-70
2022/03/31 03:32:39;;;;;;;47.78;30.83;;;4.00;99.90;;;;;;2087414;28;20064;-69
2022/03/31 03:33:40;;;;;;;46.92;30.63;;;4.00;99.90;;;;;;2079203;28;20022;-70
2022/03/31 03:34:41;;;;;;;48.17;30.80;;;4.00;99.90;;;;;;2087233;28;20194;-69
2022/03/31 03:35:42;;;;;;;47.47;30.17;;;4.10;99.90;;;;;;2087983;28;20503;-70
2022/03/31 03:36:42;;;;;;;46.60;30.05;;;4.00;99.90;;;;;;2088015;28;20043;-70
2022/03/31 03:37:44;;;;;;;48.20;30.02;;;4.00;99.90;;;;;;2087942;28;20035;-70
2022/03/31 03:38:46;;;;;;;44.63;30.00;;;4.00;99.90;;;;;;2087638;28;20040;-70
2022/03/31 03:39:46;;;;;;;46.08;30.42;;;4.00;99.90;;;;;;2087293;28;20040;-70
2022/03/31 03:40:47;;;;;;;45.50;29.60;;;4.00;99.90;;;;;;2078888;28;20033;-70
2022/03/31 03:41:48;;;;;;;49.10;29.90;;;4.10;99.90;;;;;;2087005;28;20471;-69
2022/03/31 03:42:48;;;;;;;47.72;30.48;;;4.10;99.90;;;;;;2087963;28;20033;-69
2022/03/31 03:43:50;;;;;;;44.10;29.85;;;4.00;99.90;;;;;;2087962;28;20053;-70
2022/03/31 03:44:50;;;;;;;45.70;30.25;;;4.00;99.90;;;;;;2087916;28;20126;-70
2022/03/31 03:45:52;;;;;;;46.00;29.92;;;4.00;99.90;;;;;;2087269;28;20029;-70
2022/03/31 03:46:53;;;;;;;49.72;31.55;;;4.00;99.90;;;;;;2087206;28;20411;-71
2022/03/31 03:47:53;;;;;;;45.47;30.23;;;4.00;99.90;;;;;;2087122;28;20025;-71
2022/03/31 03:48:54;;;;;;;47.85;30.30;;;3.90;99.90;;;;;;2086928;28;20045;-70
2022/03/31 03:49:54;;;;;;;48.80;31.30;;;3.90;99.90;;;;;;2087223;28;20496;-71
2022/03/31 03:50:55;;;;;;;50.30;30.92;;;3.90;99.90;;;;;;2087224;28;20055;-70
2022/03/31 03:51:56;;;;;;;46.58;30.17;;;3.90;99.90;;;;;;2087378;28;20029;-70
2022/03/31 03:52:56;;;;;;;49.90;30.55;;;3.90;99.90;;;;;;2088267;28;20040;-70
2022/03/31 03:53:57;;;;;;;47.95;30.45;;;3.90;99.90;;;;;;2088237;28;20123;-70
2022/03/31 03:54:58;;;;;;;47.03;30.48;;;3.90;99.90;;;;;;2087927;28;20078;-71
2022/03/31 03:55:58;;;;;;;50.90;31.55;;;3.90;99.90;;;;;;2087239;28;20029;-71
2022/03/31 03:56:59;;;;;;;47.67;30.15;;;3.90;99.90;;;;;;2087405;28;20025;-71
2022/03/31 03:58:00;;;;;;;49.42;30.70;;;3.90;99.90;;;;;;2088214;28;20033;-71
2022/03/31 03:59:01;;;;;;;47.13;31.52;;;3.80;99.90;;;;;;2087924;28;20043;-70
2022/03/31 04:00:03;;;;;;;46.72;30.10;;;3.90;99.90;;;;;;2087129;28;20522;-70
2022/03/31 04:01:05;;;;;;;46.90;30.70;;;3.90;99.90;;;;;;2087153;28;20122;-71
2022/03/31 04:02:06;;;;;;;47.22;30.60;;;3.80;99.90;;;;;;2088028;28;20025;-70
2022/03/31 04:03:07;;;;;;;45.92;29.55;;;3.80;99.90;;;;;;2078757;28;20049;-71
2022/03/31 04:04:08;;;;;;;48.45;30.55;;;3.80;99.90;;;;;;2078911;28;20045;-70
2022/03/31 04:05:08;;;;;;;46.03;31.30;;;3.80;99.90;;;;;;2087752;28;20100;-70
2022/03/31 04:06:11;;;;;;;47.65;31.23;;;3.80;99.90;;;;;;2087715;28;20086;-70
2022/03/31 04:07:12;;;;;;;43.40;29.50;;;3.80;99.90;;;;;;2087576;28;20041;-71
2022/03/31 04:08:14;;;;;;;45.97;30.70;;;3.80;99.90;;;;;;2086758;28;20527;-70
2022/03/31 04:09:14;;;;;;;45.75;30.02;;;3.80;99.90;;;;;;2087324;28;20667;-72
2022/03/31 04:10:15;;;;;;;46.20;29.75;;;3.80;99.90;;;;;;2087755;28;20183;-70
2022/03/31 04:11:16;;;;;;;49.05;30.88;;;3.80;99.90;;;;;;2087693;28;20036;-69
2022/03/31 04:12:17;;;;;;;46.50;29.90;;;3.80;99.90;;;;;;2087297;28;20508;-70
2022/03/31 04:13:17;;;;;;;49.58;30.35;;;3.80;99.90;;;;;;2087994;28;20039;-70
2022/03/31 04:14:19;;;;;;;46.22;29.67;;;3.80;99.90;;;;;;2087095;28;20048;-70
2022/03/31 04:15:19;;;;;;;45.65;30.48;;;3.80;99.90;;;;;;2087033;28;20033;-69
2022/03/31 04:16:20;;;;;;;47.53;30.30;;;3.80;99.90;;;;;;2087957;28;20094;-70
2022/03/31 04:17:21;;;;;;;47.83;30.48;;;3.80;99.90;;;;;;2087772;28;20044;-69
2022/03/31 04:18:21;;;;;;;46.30;30.30;;;3.80;99.90;;;;;;2087464;28;20121;-71
2022/03/31 04:19:22;;;;;;;47.85;30.33;;;3.70;99.90;;;;;;2087282;28;20306;-71
2022/03/31 04:20:23;;;;;;;47.25;30.92;;;3.70;99.90;;;;;;2087511;28;20033;-71
2022/03/31 04:21:24;;;;;;;45.53;31.02;;;3.70;99.90;;;;;;2088048;28;20033;-71
2022/03/31 04:22:25;;;;;;;49.55;30.80;;;3.70;99.90;;;;;;2088366;28;20024;-71
2022/03/31 04:23:25;;;;;;;48.83;31.23;;;3.70;99.90;;;;;;2079418;28;20132;-70
2022/03/31 04:24:26;;;;;;;44.50;30.33;;;3.70;99.90;;;;;;2079295;28;20635;-70
2022/03/31 04:25:27;;;;;;;48.25;30.83;;;3.70;99.90;;;;;;2078884;28;20477;-71
2022/03/31 04:26:31;;;;;;;48.83;31.42;;;3.60;99.90;;;;;;2079087;28;20025;-70
2022/03/31 04:27:34;;;;;;;47.08;30.90;;;3.60;99.90;;;;;;2088050;28;20229;-70
2022/03/31 04:28:34;;;;;;;48.85;31.33;;;3.60;99.90;;;;;;2078683;28;20026;-70
2022/03/31 04:29:35;;;;;;;46.65;30.85;;;3.60;99.90;;;;;;2079035;28;20060;-71
2022/03/31 04:30:36;;;;;;;47.45;31.38;;;3.60;99.90;;;;;;2087867;28;20104;-70
2022/03/31 04:31:43;;;;;;;49.30;32.03;;;3.60;99.90;;;;;;2087343;28;20017;-70
2022/03/31 04:32:44;;;;;;;52.95;31.95;;;3.60;99.90;;;;;;2087499;28;20064;-69
2022/03/31 04:33:44;;;;;;;50.40;31.35;;;3.60;99.90;;;;;;2087833;28;20483;-70
2022/03/31 04:34:45;;;;;;;48.58;31.27;;;3.60;99.90;;;;;;2087694;28;20067;-71
2022/03/31 04:35:46;;;;;;;48.33;30.83;;;3.60;99.90;;;;;;2087953;28;20048;-69
2022/03/31 04:36:47;;;;;;;46.53;30.70;;;3.60;99.90;;;;;;2088552;28;20036;-69
2022/03/31 04:37:48;;;;;;;51.47;32.38;;;3.60;99.90;;;;;;2088190;28;20029;-69
2022/03/31 04:38:48;;;;;;;50.90;32.25;;;3.60;99.90;;;;;;2087535;28;20112;-70
2022/03/31 04:39:49;;;;;;;52.20;32.50;;;3.60;99.90;;;;;;2079541;28;20662;-70
2022/03/31 04:40:50;;;;;;;49.08;31.85;;;3.60;99.90;;;;;;2087577;28;20037;-70
2022/03/31 04:41:50;;;;;;;50.92;31.85;;;3.60;99.90;;;;;;2087979;28;20033;-70
2022/03/31 04:42:51;;;;;;;51.97;31.83;;;3.50;99.90;;;;;;2088357;28;20041;-70
2022/03/31 04:43:53;;;;;;;51.00;31.75;;;3.50;99.90;;;;;;2088476;28;20067;-70
2022/03/31 04:44:53;;;;;;;47.38;31.17;;;3.50;99.90;;;;;;2088468;28;20025;-70
2022/03/31 04:45:54;;;;;;;52.45;32.97;;;3.50;99.90;;;;;;2088045;28;20078;-70
2022/03/31 04:46:55;;;;;;;50.75;32.47;;;3.50;99.90;;;;;;2088263;28;20035;-71
2022/03/31 04:47:56;;;;;;;52.28;31.88;;;3.50;99.90;;;;;;2088087;28;20025;-69
2022/03/31 04:48:58;;;;;;;50.92;32.05;;;3.50;99.90;;;;;;2088056;28;20070;-70
2022/03/31 04:49:58;;;;;;;49.53;31.88;;;3.50;99.90;;;;;;2088526;28;20025;-69
2022/03/31 04:50:59;;;;;;;52.65;33.08;;;3.50;99.90;;;;;;2079546;28;20021;-69
2022/03/31 04:52:00;;;;;;;49.95;31.42;;;3.50;99.90;;;;;;2079642;28;20487;-69
2022/03/31 04:53:01;;;;;;;52.25;32.78;;;3.50;99.90;;;;;;2088854;28;20057;-69
2022/03/31 04:54:02;;;;;;;50.50;32.10;;;3.50;99.90;;;;;;2088226;28;20025;-70
2022/03/31 04:55:03;;;;;;;52.45;32.95;;;3.50;99.90;;;;;;2088432;28;20079;-70
2022/03/31 04:56:04;;;;;;;52.85;32.63;;;3.50;99.90;;;;;;2088803;28;20032;-69
2022/03/31 04:57:04;;;;;;;49.70;32.50;;;3.50;99.90;;;;;;2088426;28;20051;-69
2022/03/31 04:58:05;;;;;;;51.72;32.00;;;3.40;99.90;;;;;;2088249;28;20037;-70
2022/03/31 04:59:05;;;;;;;51.85;32.97;;;3.40;99.90;;;;;;2088545;28;20127;-70
2022/03/31 05:00:07;;;;;;;52.28;32.72;;;3.50;99.90;;;;;;2087191;28;20102;-69
2022/03/31 05:01:07;;;;;;;49.40;32.10;;;3.50;99.90;;;;;;2085824;28;20090;-69
2022/03/31 05:02:10;;;;;;;49.13;32.90;;;3.50;99.90;;;;;;2087611;28;20110;-71
2022/03/31 05:03:10;;;;;;;50.80;32.88;;;3.50;99.90;;;;;;2087236;28;20033;-71
2022/03/31 05:04:12;;;;;;;54.38;32.88;;;3.50;99.90;;;;;;2087222;28;20508;-72
2022/03/31 05:05:13;;;;;;;49.55;32.63;;;3.50;99.90;;;;;;2087911;28;20466;-70
2022/03/31 05:06:14;;;;;;;51.03;31.98;;;3.50;99.90;;;;;;2088084;28;20029;-70
2022/03/31 05:07:14;;;;;;;51.38;32.08;;;3.50;99.90;;;;;;2087844;28;20434;-70
2022/03/31 05:08:15;;;;;;;53.22;32.53;;;3.50;99.90;;;;;;2087467;28;20051;-68
2022/03/31 05:09:15;;;;;;;52.58;32.90;;;3.50;99.90;;;;;;2087824;28;20108;-69
2022/03/31 05:10:16;;;;;;;49.03;31.27;;;3.50;99.90;;;;;;2086006;28;20029;-69
2022/03/31 05:11:17;;;;;;;54.03;32.05;;;3.50;99.90;;;;;;2086868;28;20082;-68
2022/03/31 05:12:17;;;;;;;50.17;31.25;;;3.50;99.90;;;;;;2087762;28;20116;-69
2022/03/31 05:13:18;;;;;;;52.20;32.65;;;3.50;99.90;;;;;;2087710;28;20021;-67
2022/03/31 05:14:19;;;;;;;50.10;32.13;;;3.40;99.90;;;;;;2087745;28;20033;-68
2022/03/31 05:15:19;;;;;;;51.45;32.17;;;3.40;99.90;;;;;;2088341;28;20025;-71
2022/03/31 05:16:21;;;;;;;49.30;31.70;;;3.40;99.90;;;;;;2088643;28;20108;-71
2022/03/31 05:17:21;;;;;;;49.28;32.40;;;3.40;99.90;;;;;;2090057;28;20039;-70